Time;durP1;ratioP1;P1;durP2;ratioP2;P2;SDS_P1;SDS_P2;PMS_P1;PMS_P2;Temp;Humidity;BMP_temperature;BMP_pressure;BME280_temperature;BME280_humidity;BME280_pressure;Samples;Min_cycle;Max_cycle;Signal;HPM_P1;HPM_P2
2024/04/19 00:00:55;;;;;;;1.23;0.60;;;19.20;53.20;;;;;;5265247;26;20075;-72
2024/04/19 00:03:20;;;;;;;1.52;0.80;;;19.20;53.40;;;;;;5266700;26;20006;-71
2024/04/19 00:05:46;;;;;;;1.00;0.80;;;19.20;53.20;;;;;;5265097;26;20429;-71
2024/04/19 00:08:11;;;;;;;1.75;1.00;;;19.20;53.30;;;;;;5255039;26;20013;-71
2024/04/19 00:10:38;;;;;;;1.23;0.80;;;19.20;53.30;;;;;;5259992;26;20017;-71
2024/04/19 00:13:04;;;;;;;0.85;0.60;;;19.20;53.40;;;;;;5261252;26;20018;-71
2024/04/19 00:15:29;;;;;;;0.98;0.90;;;19.20;53.40;;;;;;5252335;26;22739;-70
2024/04/19 00:17:55;;;;;;;0.80;0.70;;;19.20;53.30;;;;;;5258294;26;20011;-72
2024/04/19 00:20:21;;;;;;;1.08;0.70;;;19.20;53.20;;;;;;5248966;26;20357;-71
2024/04/19 00:22:47;;;;;;;0.85;0.70;;;19.20;53.20;;;;;;5260154;26;20006;-70
2024/04/19 00:25:13;;;;;;;1.00;0.70;;;19.20;53.20;;;;;;5252281;26;20002;-70
2024/04/19 00:27:38;;;;;;;0.70;0.70;;;19.20;53.20;;;;;;5267136;26;20074;-70
2024/04/19 00:30:04;;;;;;;1.20;0.88;;;19.20;53.30;;;;;;5256101;26;20379;-70
2024/04/19 00:32:29;;;;;;;0.80;0.65;;;19.20;53.10;;;;;;5257826;26;20023;-71
2024/04/19 00:34:55;;;;;;;0.80;0.60;;;19.20;53.30;;;;;;5262163;26;20002;-72
2024/04/19 00:37:21;;;;;;;1.13;0.73;;;19.20;53.40;;;;;;5284960;26;19999;-71
2024/04/19 00:39:46;;;;;;;0.52;0.52;;;19.20;53.40;;;;;;5253250;26;19999;-71
2024/04/19 00:42:12;;;;;;;0.80;0.65;;;19.20;53.40;;;;;;5264211;26;20476;-71
2024/04/19 00:44:37;;;;;;;0.90;0.63;;;19.20;53.80;;;;;;5261827;26;20074;-71
2024/04/19 00:47:03;;;;;;;0.90;0.80;;;19.20;53.20;;;;;;5263497;26;20017;-71
2024/04/19 00:49:30;;;;;;;0.65;0.60;;;19.20;53.30;;;;;;5255297;26;20434;-71
2024/04/19 00:51:57;;;;;;;1.02;0.70;;;19.20;53.30;;;;;;5256135;26;20081;-72
2024/04/19 00:54:23;;;;;;;1.75;0.90;;;19.20;53.30;;;;;;5255718;26;20061;-71
2024/04/19 00:56:48;;;;;;;0.60;0.57;;;19.20;53.20;;;;;;5262982;26;20010;-72
2024/04/19 00:59:15;;;;;;;1.58;1.10;;;19.20;53.20;;;;;;5244796;26;20002;-73
2024/04/19 01:01:40;;;;;;;2.33;0.80;;;19.20;53.30;;;;;;5254096;26;20139;-73
2024/04/19 01:04:07;;;;;;;0.90;0.70;;;19.20;53.30;;;;;;5256808;26;20767;-72
2024/04/19 01:06:33;;;;;;;1.02;0.85;;;19.20;53.30;;;;;;5250415;26;20085;-72
2024/04/19 01:08:58;;;;;;;0.70;0.65;;;19.20;53.20;;;;;;5254280;26;20018;-73
2024/04/19 01:11:24;;;;;;;0.73;0.70;;;19.20;53.30;;;;;;5245751;26;20022;-72
2024/04/19 01:13:49;;;;;;;1.00;0.80;;;19.20;53.20;;;;;;5255582;26;20009;-72
2024/04/19 01:16:15;;;;;;;1.48;1.17;;;19.20;53.20;;;;;;5253048;26;20010;-72
2024/04/19 01:18:40;;;;;;;1.00;0.90;;;19.20;53.30;;;;;;5259452;26;20082;-72
2024/04/19 01:21:08;;;;;;;1.63;0.98;;;19.20;53.40;;;;;;5250024;26;20006;-72
2024/04/19 01:23:35;;;;;;;1.55;0.88;;;19.20;53.30;;;;;;5269826;26;20461;-71
2024/04/19 01:26:03;;;;;;;0.90;0.70;;;19.20;53.30;;;;;;5257846;26;19998;-72
2024/04/19 01:28:29;;;;;;;1.33;0.90;;;19.20;53.40;;;;;;5261675;26;19998;-72
2024/04/19 01:30:55;;;;;;;1.15;0.85;;;19.20;53.30;;;;;;5251221;26;20003;-73
2024/04/19 01:33:20;;;;;;;1.55;0.82;;;19.20;53.20;;;;;;5255937;26;20005;-72
2024/04/19 01:35:45;;;;;;;0.82;0.82;;;19.20;53.40;;;;;;5256523;26;20006;-71
2024/04/19 01:38:11;;;;;;;0.85;0.65;;;19.20;53.30;;;;;;5257870;26;20128;-72
2024/04/19 01:40:36;;;;;;;0.98;0.77;;;19.20;53.40;;;;;;5260491;26;20009;-72
2024/04/19 01:43:03;;;;;;;1.02;0.70;;;19.20;53.30;;;;;;5262786;26;20022;-72
2024/04/19 01:45:28;;;;;;;1.92;1.10;;;19.20;53.40;;;;;;5259893;26;20022;-72
2024/04/19 01:47:55;;;;;;;1.75;0.68;;;19.20;53.30;;;;;;5262462;26;21919;-73
2024/04/19 01:50:20;;;;;;;0.93;0.60;;;19.20;53.30;;;;;;5248911;26;20015;-72
2024/04/19 01:52:46;;;;;;;1.10;0.75;;;19.20;53.10;;;;;;5257975;26;20099;-72
2024/04/19 01:55:11;;;;;;;1.88;1.00;;;19.20;53.30;;;;;;5254250;26;20458;-72
2024/04/19 01:57:37;;;;;;;1.55;0.80;;;19.20;53.30;;;;;;5258422;26;20035;-72
2024/04/19 02:00:03;;;;;;;1.35;0.77;;;19.20;53.30;;;;;;5261582;26;20461;-72
2024/04/19 02:02:29;;;;;;;1.35;0.70;;;19.20;53.30;;;;;;5243765;26;19995;-73
2024/04/19 02:04:56;;;;;;;0.88;0.80;;;19.20;53.10;;;;;;5254818;26;20014;-74
2024/04/19 02:07:21;;;;;;;1.52;0.88;;;19.20;53.40;;;;;;5246749;26;20441;-72
2024/04/19 02:09:47;;;;;;;1.48;0.70;;;19.20;53.20;;;;;;5254048;26;20010;-72
2024/04/19 02:12:12;;;;;;;0.98;0.70;;;19.20;54.10;;;;;;5256842;26;20035;-72
2024/04/19 02:14:38;;;;;;;1.15;0.70;;;19.20;53.40;;;;;;5256332;26;20018;-72
2024/04/19 02:17:04;;;;;;;1.00;0.70;;;19.10;53.40;;;;;;5255475;26;20013;-72
2024/04/19 02:19:35;;;;;;;2.25;0.70;;;19.10;53.30;;;;;;5253149;26;20417;-72
2024/04/19 02:22:04;;;;;;;1.05;0.70;;;19.10;53.50;;;;;;5261573;26;20497;-72
2024/04/19 02:24:30;;;;;;;1.52;0.90;;;19.10;53.30;;;;;;5255659;26;20335;-72
2024/04/19 02:26:56;;;;;;;1.33;0.80;;;19.10;53.40;;;;;;5266517;26;20026;-72
2024/04/19 02:32:05;;;;;;;1.63;0.85;;;19.10;53.50;;;;;;5268642;26;20310;-72
2024/04/19 02:34:30;;;;;;;1.20;0.60;;;19.00;53.40;;;;;;5258679;26;20003;-72
2024/04/19 02:36:56;;;;;;;1.05;0.70;;;19.10;53.50;;;;;;5265306;26;20003;-73
2024/04/19 02:39:22;;;;;;;1.35;0.90;;;19.00;53.50;;;;;;5260514;26;20025;-71
2024/04/19 02:41:47;;;;;;;0.88;0.60;;;19.00;53.80;;;;;;5270690;26;20042;-72
2024/04/19 02:44:13;;;;;;;0.90;0.70;;;19.00;53.70;;;;;;5265766;26;20018;-72
2024/04/19 02:46:39;;;;;;;1.67;0.80;;;18.90;53.70;;;;;;5262724;26;20697;-72
2024/04/19 02:49:05;;;;;;;2.35;0.85;;;18.90;53.90;;;;;;5266297;26;20027;-71
2024/04/19 02:51:30;;;;;;;1.70;0.80;;;18.90;53.90;;;;;;5258725;26;20125;-70
2024/04/19 02:53:56;;;;;;;1.00;0.90;;;18.80;53.90;;;;;;5264934;26;20013;-71
2024/04/19 02:56:22;;;;;;;1.00;0.77;;;18.80;54.00;;;;;;5262417;26;20384;-70
2024/04/19 02:58:47;;;;;;;0.93;0.73;;;18.80;54.10;;;;;;5263790;26;19998;-70
2024/04/19 03:01:13;;;;;;;2.00;0.82;;;18.80;54.20;;;;;;5256475;26;20018;-70
2024/04/19 03:03:38;;;;;;;1.00;0.90;;;18.80;54.10;;;;;;5219318;26;19998;-68
2024/04/19 03:06:04;;;;;;;0.77;0.60;;;18.70;54.10;;;;;;5231447;26;20029;-69
2024/04/19 03:08:29;;;;;;;1.40;0.63;;;18.80;54.20;;;;;;5256906;26;20194;-67
2024/04/19 03:10:55;;;;;;;1.58;0.80;;;18.80;54.10;;;;;;5252798;26;19998;-69
2024/04/19 03:13:20;;;;;;;1.05;0.70;;;18.70;54.10;;;;;;5258966;26;20002;-69
2024/04/19 03:15:46;;;;;;;1.63;1.00;;;18.70;54.10;;;;;;5254527;26;20030;-67
2024/04/19 03:18:11;;;;;;;1.00;0.50;;;18.70;54.70;;;;;;5268908;26;19998;-68
2024/04/19 03:20:37;;;;;;;0.80;0.77;;;18.70;53.90;;;;;;5266080;26;20006;-67
2024/04/19 03:23:02;;;;;;;1.00;0.70;;;18.70;54.00;;;;;;5265335;26;20076;-69
2024/04/19 03:25:28;;;;;;;0.50;0.50;;;18.80;54.10;;;;;;5266733;26;20042;-68
2024/04/19 03:27:53;;;;;;;0.75;0.75;;;18.80;53.90;;;;;;5263636;26;20054;-68
2024/04/19 03:30:29;;;;;;;1.10;0.63;;;18.80;54.50;;;;;;5261511;26;20002;-69
2024/04/19 03:32:55;;;;;;;1.58;0.70;;;18.80;53.90;;;;;;5266611;26;20014;-67
2024/04/19 03:35:20;;;;;;;0.85;0.45;;;18.80;53.90;;;;;;5266971;26;20017;-69
2024/04/19 03:37:46;;;;;;;1.25;0.80;;;18.80;53.70;;;;;;5262015;26;20006;-67
2024/04/19 03:40:11;;;;;;;1.95;0.70;;;18.80;53.70;;;;;;5264813;26;20504;-69
2024/04/19 03:42:45;;;;;;;1.33;0.75;;;18.90;53.70;;;;;;5266667;26;20013;-69
2024/04/19 03:47:55;;;;;;;2.15;0.68;;;18.90;53.60;;;;;;5258413;26;20060;-68
2024/04/19 03:50:20;;;;;;;0.70;0.50;;;18.90;53.60;;;;;;5265151;26;20014;-67
2024/04/19 03:52:46;;;;;;;1.73;0.60;;;18.90;53.50;;;;;;5266463;26;20002;-69
2024/04/19 03:55:12;;;;;;;1.63;0.80;;;18.90;53.30;;;;;;5266432;26;20323;-68
2024/04/19 03:57:37;;;;;;;0.70;0.70;;;18.90;53.40;;;;;;5264561;26;20007;-68
2024/04/19 04:00:03;;;;;;;1.02;0.70;;;19.00;53.40;;;;;;5263111;26;20012;-70
2024/04/19 04:02:29;;;;;;;1.00;0.60;;;19.00;53.30;;;;;;5262111;26;20030;-69
2024/04/19 04:04:55;;;;;;;0.82;0.60;;;19.00;53.20;;;;;;5269107;26;20016;-69
2024/04/19 04:07:20;;;;;;;1.05;0.70;;;19.00;53.40;;;;;;5271981;26;20379;-69
2024/04/19 04:09:46;;;;;;;1.20;0.85;;;19.00;53.30;;;;;;5261134;26;20006;-67
2024/04/19 04:12:11;;;;;;;0.85;0.82;;;19.00;53.30;;;;;;5271455;26;20002;-68
2024/04/19 04:14:36;;;;;;;1.00;0.57;;;19.00;53.10;;;;;;5256197;26;20073;-68
2024/04/19 04:17:02;;;;;;;0.40;0.40;;;19.00;53.40;;;;;;5261063;26;20331;-68
2024/04/19 04:19:28;;;;;;;1.25;0.65;;;19.00;53.30;;;;;;5257378;26;20047;-69
2024/04/19 04:21:53;;;;;;;0.90;0.80;;;19.00;53.20;;;;;;5266996;26;20102;-67
2024/04/19 04:24:19;;;;;;;0.75;0.60;;;19.10;53.30;;;;;;5265165;26;20082;-68
2024/04/19 04:26:44;;;;;;;0.90;0.70;;;19.10;53.10;;;;;;5260751;26;20012;-68
2024/04/19 04:29:10;;;;;;;0.93;0.63;;;19.10;53.10;;;;;;5258410;26;20081;-68
2024/04/19 04:31:35;;;;;;;1.98;0.60;;;19.10;53.20;;;;;;5271900;26;20023;-66
2024/04/19 04:34:01;;;;;;;0.95;0.50;;;19.10;53.10;;;;;;5259393;26;20436;-69
2024/04/19 04:36:26;;;;;;;1.13;0.70;;;19.10;53.10;;;;;;5267630;26;20411;-69
2024/04/19 04:38:52;;;;;;;1.02;0.60;;;19.10;53.20;;;;;;5263890;26;20007;-69
2024/04/19 04:41:18;;;;;;;1.35;0.75;;;19.10;53.10;;;;;;5263069;26;20007;-70
2024/04/19 04:43:43;;;;;;;1.27;0.68;;;19.20;53.00;;;;;;5260925;26;20018;-67
2024/04/19 04:46:09;;;;;;;0.73;0.60;;;19.20;53.10;;;;;;5239932;26;20477;-69
2024/04/19 04:48:34;;;;;;;0.90;0.70;;;19.20;53.00;;;;;;5246975;26;20080;-66
2024/04/19 04:51:00;;;;;;;0.50;0.50;;;19.20;53.10;;;;;;5253416;26;20095;-67
2024/04/19 04:53:26;;;;;;;0.57;0.50;;;19.20;52.90;;;;;;5259336;26;20020;-69
2024/04/19 04:55:54;;;;;;;0.88;0.50;;;19.20;53.10;;;;;;5236696;26;20015;-68
2024/04/19 04:58:20;;;;;;;0.63;0.55;;;19.20;52.90;;;;;;5248152;26;20441;-67
2024/04/19 05:00:47;;;;;;;1.48;0.63;;;19.20;53.10;;;;;;5246605;26;20045;-68
2024/04/19 05:03:13;;;;;;;0.90;0.60;;;19.30;53.00;;;;;;5248882;26;19998;-68
2024/04/19 05:05:39;;;;;;;1.25;0.50;;;19.30;53.00;;;;;;5259681;26;20002;-68
2024/04/19 05:08:05;;;;;;;3.13;0.90;;;19.30;52.90;;;;;;5247296;26;20022;-69
2024/04/19 05:10:30;;;;;;;0.77;0.55;;;19.30;52.90;;;;;;5253121;26;20017;-69
2024/04/19 05:12:57;;;;;;;2.60;0.63;;;19.30;52.90;;;;;;5245344;26;19999;-67
2024/04/19 05:15:23;;;;;;;1.58;0.70;;;19.30;53.20;;;;;;5247173;26;20013;-68
2024/04/19 05:17:49;;;;;;;1.50;0.80;;;19.20;53.10;;;;;;5256417;26;20029;-68
2024/04/19 05:20:15;;;;;;;0.70;0.50;;;19.20;53.10;;;;;;5252887;26;20002;-68
2024/04/19 05:22:40;;;;;;;0.73;0.50;;;19.20;53.20;;;;;;5252701;26;20002;-68
2024/04/19 05:25:09;;;;;;;1.40;0.80;;;19.20;53.30;;;;;;5167399;26;20439;-68
2024/04/19 05:27:35;;;;;;;1.55;0.88;;;19.10;53.30;;;;;;5249849;26;20000;-72
2024/04/19 05:30:00;;;;;;;2.22;0.57;;;19.10;53.30;;;;;;5238659;26;20443;-71
2024/04/19 05:32:26;;;;;;;0.70;0.60;;;19.00;53.40;;;;;;5252951;26;20089;-70
2024/04/19 05:34:51;;;;;;;2.00;0.77;;;19.10;53.70;;;;;;5251109;26;20317;-66
2024/04/19 05:37:19;;;;;;;0.57;0.45;;;19.00;53.80;;;;;;5254708;26;20017;-70
2024/04/19 05:39:44;;;;;;;1.05;0.60;;;19.00;54.00;;;;;;5249280;26;20022;-67
2024/04/19 05:42:10;;;;;;;3.75;0.85;;;18.90;53.80;;;;;;5256631;26;19998;-70
2024/04/19 05:44:35;;;;;;;2.80;0.77;;;18.90;54.00;;;;;;5263416;26;20420;-70
2024/04/19 05:47:01;;;;;;;3.42;0.63;;;18.90;54.00;;;;;;5252132;26;20446;-66
2024/04/19 05:49:27;;;;;;;2.30;0.93;;;18.80;54.10;;;;;;5243675;26;20075;-67
2024/04/19 05:51:53;;;;;;;2.13;0.73;;;18.80;54.20;;;;;;5261778;26;20501;-69
2024/04/19 05:54:18;;;;;;;3.60;1.00;;;18.80;54.10;;;;;;5260498;26;20042;-69
2024/04/19 05:56:44;;;;;;;3.13;1.10;;;18.80;54.30;;;;;;5246267;26;19998;-68
2024/04/19 05:59:10;;;;;;;1.92;1.33;;;18.80;54.40;;;;;;5257661;26;20007;-68
2024/04/19 06:01:35;;;;;;;5.63;1.63;;;18.80;54.40;;;;;;5265613;26;20077;-70
2024/04/19 06:04:01;;;;;;;2.88;1.70;;;18.70;54.50;;;;;;5263296;26;20326;-67
2024/04/19 06:06:26;;;;;;;4.20;1.35;;;18.70;54.60;;;;;;5254285;26;20044;-67
2024/04/19 06:08:52;;;;;;;3.92;1.27;;;18.70;54.70;;;;;;5252271;26;19995;-68
2024/04/19 06:11:17;;;;;;;4.80;1.60;;;18.70;54.70;;;;;;5270996;26;19994;-67
2024/04/19 06:13:44;;;;;;;3.92;1.73;;;18.60;54.80;;;;;;5259846;26;20009;-68
2024/04/19 06:16:10;;;;;;;4.22;1.35;;;18.60;54.70;;;;;;5250934;26;20078;-67
2024/04/19 06:18:36;;;;;;;4.13;1.73;;;18.60;54.80;;;;;;5259658;26;20012;-69
2024/04/19 06:21:02;;;;;;;4.38;1.80;;;18.60;54.70;;;;;;5260618;26;20119;-68
2024/04/19 06:23:28;;;;;;;4.93;1.58;;;18.70;54.60;;;;;;5259534;26;20701;-67
2024/04/19 06:25:55;;;;;;;4.70;1.38;;;18.70;54.40;;;;;;5247716;26;19999;-68
2024/04/19 06:28:21;;;;;;;3.72;1.90;;;18.80;54.40;;;;;;5270330;26;20002;-69
2024/04/19 06:30:47;;;;;;;3.75;1.60;;;19.00;54.20;;;;;;5253595;26;20495;-68
2024/04/19 06:33:12;;;;;;;6.20;2.53;;;19.10;53.90;;;;;;5266133;26;19998;-68
2024/04/19 06:35:38;;;;;;;3.47;2.10;;;19.30;53.70;;;;;;5254470;26;20011;-68
2024/04/19 06:38:04;;;;;;;3.67;2.22;;;19.40;53.20;;;;;;5260144;26;19995;-68
2024/04/19 06:40:29;;;;;;;3.55;2.63;;;19.60;52.90;;;;;;5273918;26;20317;-69
2024/04/19 06:42:55;;;;;;;5.80;2.95;;;19.80;52.70;;;;;;5268843;26;20002;-69
2024/04/19 06:45:20;;;;;;;5.20;2.67;;;20.00;52.50;;;;;;5267503;26;20448;-70
2024/04/19 06:47:46;;;;;;;5.40;2.70;;;20.10;52.10;;;;;;5256135;26;20045;-70
2024/04/19 06:50:12;;;;;;;5.55;2.33;;;20.20;51.80;;;;;;5251689;26;20439;-70
2024/04/19 06:52:37;;;;;;;3.95;2.25;;;20.40;51.60;;;;;;5261987;26;19998;-69
2024/04/19 06:55:03;;;;;;;3.67;2.40;;;20.50;51.40;;;;;;5265969;26;20045;-71
2024/04/19 06:57:28;;;;;;;5.38;2.88;;;20.60;51.20;;;;;;5264940;26;20326;-69
2024/04/19 06:59:54;;;;;;;5.25;2.90;;;20.70;51.20;;;;;;5265855;26;20014;-72
2024/04/19 07:02:19;;;;;;;4.95;2.80;;;20.80;51.20;;;;;;5269126;26;20006;-72
2024/04/19 07:04:45;;;;;;;6.45;3.05;;;20.70;51.10;;;;;;5263073;26;20077;-70
2024/04/19 07:07:10;;;;;;;8.02;3.30;;;20.70;51.30;;;;;;5266551;26;20013;-70
2024/04/19 07:09:36;;;;;;;6.95;2.95;;;20.70;51.30;;;;;;5269649;26;20072;-70
2024/04/19 07:12:01;;;;;;;6.57;2.95;;;20.70;51.50;;;;;;5249664;26;20085;-71
2024/04/19 07:14:27;;;;;;;7.25;3.95;;;20.60;51.70;;;;;;5266119;26;20491;-71
2024/04/19 07:16:52;;;;;;;7.93;4.13;;;20.60;51.80;;;;;;5253426;26;20006;-71
2024/04/19 07:19:18;;;;;;;7.70;4.20;;;20.50;52.00;;;;;;5260622;26;20022;-71
2024/04/19 07:21:43;;;;;;;17.67;5.90;;;20.40;51.60;;;;;;5253390;26;20028;-71
2024/04/19 07:24:09;;;;;;;10.48;5.03;;;20.30;51.80;;;;;;5256929;26;19999;-71
2024/04/19 07:26:37;;;;;;;11.02;5.18;;;20.20;52.40;;;;;;5268069;26;20012;-70
2024/04/19 07:29:06;;;;;;;12.30;5.97;;;20.20;52.60;;;;;;5265757;26;20006;-71
2024/04/19 07:31:31;;;;;;;10.30;4.78;;;20.10;52.70;;;;;;5262604;26;20500;-71
2024/04/19 07:33:57;;;;;;;11.70;5.15;;;20.10;52.80;;;;;;5253890;26;20056;-72
2024/04/19 07:36:23;;;;;;;15.30;5.45;;;20.10;53.00;;;;;;5265680;26;20002;-71
2024/04/19 07:38:48;;;;;;;9.35;4.78;;;20.00;53.00;;;;;;5250254;26;20006;-71
2024/04/19 07:41:14;;;;;;;9.40;4.85;;;19.90;53.30;;;;;;5256320;26;20025;-70
2024/04/19 07:43:39;;;;;;;9.55;4.65;;;19.90;53.40;;;;;;5260204;26;20452;-71
2024/04/19 07:46:05;;;;;;;15.43;5.03;;;19.80;53.60;;;;;;5253679;26;20081;-71
2024/04/19 07:48:30;;;;;;;9.82;4.40;;;19.80;53.70;;;;;;5269117;26;20006;-71
2024/04/19 07:50:56;;;;;;;8.27;4.35;;;19.70;53.70;;;;;;5260658;26;20525;-73
2024/04/19 07:53:22;;;;;;;9.10;4.47;;;19.60;53.80;;;;;;5265897;26;20014;-71
2024/04/19 07:55:48;;;;;;;10.73;4.45;;;19.60;54.00;;;;;;5260360;26;20336;-72
2024/04/19 07:58:14;;;;;;;7.65;3.97;;;19.60;54.00;;;;;;5251357;26;20014;-72
2024/04/19 08:00:40;;;;;;;10.50;4.13;;;19.50;54.10;;;;;;5257697;26;20079;-72
2024/04/19 08:03:06;;;;;;;9.40;4.68;;;19.50;54.10;;;;;;5271110;26;20471;-72
2024/04/19 08:05:32;;;;;;;8.15;4.35;;;19.50;54.20;;;;;;5264229;26;20392;-71
2024/04/19 08:07:58;;;;;;;7.25;3.83;;;19.40;54.30;;;;;;5255092;26;20002;-72
2024/04/19 08:10:26;;;;;;;6.68;4.00;;;19.40;54.40;;;;;;5262926;26;20015;-72
2024/04/19 08:12:52;;;;;;;6.22;3.60;;;19.40;54.40;;;;;;5212324;27;20003;-71
2024/04/19 08:15:17;;;;;;;7.07;3.97;;;19.30;54.40;;;;;;5254534;26;20069;-71
2024/04/19 08:17:43;;;;;;;5.97;3.90;;;19.30;54.50;;;;;;5261379;26;20002;-70
2024/04/19 08:20:09;;;;;;;6.70;4.18;;;19.30;54.60;;;;;;5256935;26;20007;-71
2024/04/19 08:22:35;;;;;;;9.15;3.70;;;19.20;54.60;;;;;;5252490;26;20007;-70
2024/04/19 08:25:00;;;;;;;5.38;3.13;;;19.20;54.60;;;;;;5257492;26;21533;-72
2024/04/19 08:27:26;;;;;;;8.27;3.65;;;19.20;54.70;;;;;;5261722;26;20070;-71
2024/04/19 08:29:53;;;;;;;5.55;3.30;;;19.20;54.70;;;;;;5264843;26;20018;-72
2024/04/19 08:32:19;;;;;;;5.55;3.30;;;19.20;54.80;;;;;;5267794;26;20346;-72
2024/04/19 08:34:47;;;;;;;6.75;3.53;;;19.10;54.80;;;;;;5268110;26;20029;-72
2024/04/19 08:37:12;;;;;;;7.68;3.33;;;19.10;54.80;;;;;;5247925;26;21145;-71
2024/04/19 08:39:38;;;;;;;6.22;3.58;;;19.10;54.80;;;;;;5236545;26;20017;-71
2024/04/19 08:42:06;;;;;;;5.07;3.58;;;19.10;54.90;;;;;;5274735;26;20010;-72
2024/04/19 08:44:32;;;;;;;7.15;3.60;;;19.00;55.00;;;;;;5244382;26;20025;-71
2024/04/19 08:46:59;;;;;;;7.05;3.25;;;19.00;55.00;;;;;;5242513;26;20018;-72
2024/04/19 08:49:26;;;;;;;5.53;3.17;;;19.00;55.10;;;;;;5232579;26;20417;-71
2024/04/19 08:51:54;;;;;;;6.55;3.10;;;19.00;55.20;;;;;;5201532;26;20006;-72
2024/04/19 08:54:21;;;;;;;5.35;3.13;;;19.00;55.10;;;;;;5258272;26;20059;-71
2024/04/19 08:56:49;;;;;;;5.97;3.10;;;19.00;55.60;;;;;;5270704;26;19998;-71
2024/04/19 08:59:15;;;;;;;4.13;2.78;;;19.00;55.00;;;;;;5258092;26;20030;-72
2024/04/19 09:01:41;;;;;;;6.75;3.20;;;19.10;55.00;;;;;;5250997;26;20022;-72
2024/04/19 09:04:07;;;;;;;4.72;3.15;;;19.10;54.90;;;;;;5242368;26;20036;-71
2024/04/19 09:06:33;;;;;;;5.45;3.15;;;19.30;54.70;;;;;;5239390;26;20006;-72
2024/04/19 09:08:59;;;;;;;5.88;2.97;;;19.40;54.50;;;;;;5241971;26;20808;-72
2024/04/19 09:11:25;;;;;;;5.55;2.60;;;19.50;54.20;;;;;;5248209;26;20023;-71
2024/04/19 09:13:50;;;;;;;3.40;2.67;;;19.60;53.80;;;;;;5253164;26;20462;-71
2024/04/19 09:16:16;;;;;;;5.38;2.85;;;19.80;53.60;;;;;;5240701;26;20001;-72
2024/04/19 09:18:47;;;;;;;3.60;2.40;;;19.90;53.30;;;;;;5266158;26;20318;-71
2024/04/19 09:21:13;;;;;;;3.83;2.35;;;20.10;53.10;;;;;;5252331;26;20002;-71
2024/04/19 09:23:38;;;;;;;4.85;2.70;;;20.20;52.90;;;;;;5256390;26;20013;-71
2024/04/19 09:26:04;;;;;;;4.40;2.80;;;20.30;52.70;;;;;;5257732;26;20461;-71
2024/04/19 09:28:29;;;;;;;3.13;2.22;;;20.40;52.50;;;;;;5263201;26;20050;-72
2024/04/19 09:30:55;;;;;;;3.53;2.50;;;20.60;52.30;;;;;;5259506;26;20034;-72
2024/04/19 09:33:22;;;;;;;4.72;2.33;;;20.70;52.10;;;;;;5260600;26;20018;-72
2024/04/19 09:35:52;;;;;;;2.70;2.20;;;20.80;52.00;;;;;;5251387;26;20010;-72
2024/04/19 09:38:22;;;;;;;2.63;2.10;;;20.80;52.00;;;;;;5253595;26;20013;-72
2024/04/19 09:40:48;;;;;;;4.13;2.25;;;20.80;51.90;;;;;;5254860;26;20022;-72
2024/04/19 09:43:15;;;;;;;4.70;2.92;;;20.90;51.90;;;;;;5258586;26;20572;-71
2024/04/19 09:45:48;;;;;;;4.78;2.60;;;20.90;52.00;;;;;;5264933;26;20017;-71
2024/04/19 09:48:15;;;;;;;3.58;2.00;;;20.80;52.00;;;;;;5256700;26;20007;-70
2024/04/19 09:50:46;;;;;;;3.72;2.15;;;20.80;52.10;;;;;;5270806;26;20495;-69
2024/04/19 09:53:43;;;;;;;3.65;1.95;;;20.70;52.20;;;;;;5255653;26;20011;-72
2024/04/19 09:56:28;;;;;;;2.97;1.98;;;20.60;52.30;;;;;;5250625;26;20502;-70
2024/04/19 09:58:55;;;;;;;3.08;1.98;;;20.60;52.50;;;;;;5262268;26;20141;-72
2024/04/19 10:01:21;;;;;;;2.25;1.95;;;20.50;52.70;;;;;;5261917;26;20043;-71
2024/04/19 10:03:48;;;;;;;2.40;1.70;;;20.50;52.90;;;;;;5254165;26;20017;-71
2024/04/19 10:06:14;;;;;;;2.25;1.73;;;20.50;53.00;;;;;;5263125;26;20030;-71
2024/04/19 10:08:41;;;;;;;2.35;2.00;;;20.40;53.10;;;;;;5259968;26;20446;-71
2024/04/19 10:11:07;;;;;;;2.45;1.60;;;20.30;53.20;;;;;;5257401;26;20006;-71
2024/04/19 10:13:32;;;;;;;2.97;1.90;;;20.20;53.40;;;;;;5265651;26;20002;-71
2024/04/19 10:15:58;;;;;;;3.03;2.13;;;20.20;53.50;;;;;;5255935;26;19999;-72
2024/04/19 10:18:24;;;;;;;2.33;1.65;;;20.10;53.70;;;;;;5261987;26;20390;-72
2024/04/19 10:20:50;;;;;;;1.85;1.65;;;20.10;53.90;;;;;;5257445;26;20034;-71
2024/04/19 10:23:16;;;;;;;2.97;1.42;;;20.00;54.00;;;;;;5253121;26;20035;-71
2024/04/19 10:25:41;;;;;;;2.05;1.40;;;19.90;54.00;;;;;;5264237;26;20467;-71
2024/04/19 10:28:09;;;;;;;2.45;1.52;;;19.90;54.10;;;;;;5253348;26;19998;-72
2024/04/19 10:30:34;;;;;;;2.00;1.80;;;19.80;54.10;;;;;;5247875;26;20001;-71
2024/04/19 10:33:01;;;;;;;2.83;1.63;;;19.70;54.20;;;;;;5264269;26;20017;-71
2024/04/19 10:35:26;;;;;;;3.03;1.92;;;19.70;54.30;;;;;;5255830;26;20410;-71
2024/04/19 10:37:52;;;;;;;3.05;1.75;;;19.70;54.50;;;;;;5244677;26;19999;-72
2024/04/19 10:40:19;;;;;;;3.88;1.80;;;19.60;54.50;;;;;;5241887;26;20003;-71
2024/04/19 10:42:45;;;;;;;1.58;1.27;;;19.60;54.60;;;;;;5251987;26;20014;-71
2024/04/19 10:45:13;;;;;;;3.03;1.65;;;19.60;54.60;;;;;;5248104;26;20002;-71
2024/04/19 10:47:41;;;;;;;2.55;2.35;;;19.50;54.70;;;;;;5251285;26;20006;-71
2024/04/19 10:50:07;;;;;;;1.85;1.30;;;19.50;54.80;;;;;;5243995;26;20337;-71
2024/04/19 10:52:36;;;;;;;2.45;1.52;;;19.50;54.90;;;;;;5254993;26;20025;-72
2024/04/19 10:55:03;;;;;;;1.73;1.38;;;19.40;54.90;;;;;;5257333;26;20413;-71
2024/04/19 10:57:31;;;;;;;1.80;1.23;;;19.40;55.00;;;;;;5257953;26;20073;-71
2024/04/19 10:59:57;;;;;;;1.48;1.10;;;19.40;55.00;;;;;;5259842;26;20054;-69
2024/04/19 11:02:26;;;;;;;2.15;1.20;;;19.30;55.00;;;;;;5255631;26;20003;-71
2024/04/19 11:04:52;;;;;;;2.80;1.50;;;19.30;55.10;;;;;;5253447;26;20144;-72
2024/04/19 11:07:18;;;;;;;2.58;1.35;;;19.30;55.10;;;;;;5253730;26;20528;-72
2024/04/19 11:09:44;;;;;;;1.92;1.33;;;19.20;55.10;;;;;;5243670;26;20011;-71
2024/04/19 11:12:09;;;;;;;1.20;1.05;;;19.20;55.20;;;;;;5253085;26;20062;-71
2024/04/19 11:14:35;;;;;;;1.65;0.95;;;19.20;55.20;;;;;;5244939;26;20056;-71
2024/04/19 11:17:03;;;;;;;1.35;1.25;;;19.20;55.30;;;;;;5244133;26;20003;-71
2024/04/19 11:19:30;;;;;;;2.40;1.40;;;19.10;55.30;;;;;;5247035;26;20089;-71
2024/04/19 11:21:58;;;;;;;0.95;0.85;;;19.10;55.40;;;;;;5258854;26;20520;-72
2024/04/19 11:24:24;;;;;;;1.33;1.00;;;19.10;55.50;;;;;;5252996;26;20277;-72
2024/04/19 11:26:51;;;;;;;1.40;1.08;;;19.10;55.50;;;;;;5254780;26;20333;-71
2024/04/19 11:29:20;;;;;;;2.03;1.17;;;19.10;55.60;;;;;;5257414;26;20017;-72
2024/04/19 11:31:46;;;;;;;1.40;1.20;;;19.10;55.60;;;;;;5255307;26;20003;-72
2024/04/19 11:34:12;;;;;;;1.35;1.02;;;19.00;55.50;;;;;;5251103;26;20048;-71
2024/04/19 11:36:37;;;;;;;1.45;1.00;;;19.00;55.50;;;;;;5252162;26;20380;-71
2024/04/19 11:39:03;;;;;;;1.73;1.10;;;19.00;55.50;;;;;;5252165;26;20006;-71
2024/04/19 11:41:29;;;;;;;1.42;0.90;;;19.00;55.60;;;;;;5253847;26;20066;-72
2024/04/19 11:43:58;;;;;;;1.15;0.90;;;19.00;55.60;;;;;;5250793;26;20535;-72
2024/04/19 11:46:28;;;;;;;2.63;1.00;;;19.00;55.60;;;;;;5256298;26;19995;-71
2024/04/19 11:48:58;;;;;;;2.55;1.17;;;19.00;55.60;;;;;;5249627;26;20625;-72
2024/04/19 11:51:25;;;;;;;1.13;1.02;;;19.00;55.70;;;;;;5250929;26;20000;-72
2024/04/19 11:53:51;;;;;;;1.77;0.98;;;19.00;55.70;;;;;;5260471;26;20373;-72
2024/04/19 11:56:16;;;;;;;1.52;0.80;;;18.90;55.60;;;;;;5257025;26;20863;-72
2024/04/19 11:58:43;;;;;;;1.08;0.73;;;18.90;55.70;;;;;;5267768;26;19998;-70
2024/04/19 12:01:09;;;;;;;1.38;0.90;;;18.90;55.70;;;;;;5257404;26;20073;-71
2024/04/19 12:03:34;;;;;;;1.50;1.10;;;18.90;55.80;;;;;;5255352;26;20022;-71
2024/04/19 12:06:00;;;;;;;1.02;0.80;;;18.90;55.80;;;;;;5245461;26;20447;-71
2024/04/19 12:08:25;;;;;;;1.08;0.70;;;18.90;55.80;;;;;;5251604;26;19999;-70
2024/04/19 12:10:51;;;;;;;0.95;0.70;;;18.80;55.70;;;;;;5252014;26;20002;-71
2024/04/19 12:13:16;;;;;;;1.65;0.80;;;18.80;55.80;;;;;;5253339;26;20067;-70
2024/04/19 12:15:42;;;;;;;1.63;0.70;;;18.90;55.70;;;;;;5248949;26;20006;-71
2024/04/19 12:18:07;;;;;;;0.98;0.73;;;19.00;55.60;;;;;;5243559;26;20078;-70
2024/04/19 12:20:33;;;;;;;1.08;0.77;;;19.10;55.40;;;;;;5254718;26;20008;-72
2024/04/19 12:22:58;;;;;;;0.82;0.50;;;19.20;55.10;;;;;;5258053;26;20492;-72
2024/04/19 12:25:24;;;;;;;1.85;0.80;;;19.40;54.80;;;;;;5252470;26;20006;-71
2024/04/19 12:27:49;;;;;;;1.40;0.80;;;19.60;54.30;;;;;;5259591;26;20007;-72
2024/04/19 12:30:15;;;;;;;1.65;0.80;;;19.80;53.90;;;;;;5256438;26;20014;-71
2024/04/19 12:32:41;;;;;;;0.82;0.60;;;20.00;53.60;;;;;;5251800;26;20462;-72
2024/04/19 12:35:09;;;;;;;1.27;0.70;;;20.10;53.20;;;;;;5257056;26;20084;-70
2024/04/19 12:37:35;;;;;;;1.08;0.88;;;20.30;53.00;;;;;;5244884;26;20017;-71
2024/04/19 12:40:01;;;;;;;1.55;0.70;;;20.40;52.70;;;;;;5255541;26;19994;-71
2024/04/19 12:42:27;;;;;;;0.82;0.57;;;20.60;52.60;;;;;;5245871;26;19998;-72
2024/04/19 12:44:53;;;;;;;0.40;0.40;;;20.70;52.30;;;;;;5248485;26;20104;-72